Glendale, Minnesota
Current Conditions -  °F | °C
As of 10:33 AM on Friday 21 Nov 2014 (Local Time) from KORB Reporting Station
Overcast Overcast  
Wind Chill:   Ceiling: 8000
Heat Index: 18°   Visibility: 10mi
Dew Point:   Wind: 15mph
Humidity: 68%   Direction: 180°S
Pressure: 29.86"   Gusts: 21mph
Location:  48.1455°N, 92.8504°W
Report Text: KORB 211633Z AUTO 18013G18KT 10SM OVC080 M08/M13 A2986 RMK AO2
Loading
Personal Weather Stations






























Interactive Weather Map New forecast layout! Learn more

10-Day Weather Forecast

Advertisements
Track Severe Weather on mobile